Time;durP1;ratioP1;P1;durP2;ratioP2;P2;SDS_P1;SDS_P2;PMS_P1;PMS_P2;Temp;Humidity;BMP_temperature;BMP_pressure;BME280_temperature;BME280_humidity;BME280_pressure;Samples;Min_cycle;Max_cycle;Signal;HPM_P1;HPM_P2
2022/11/04 00:01:39;;;;;;;2.17;2.03;;;11.90;99.90;;;;;;5095179;28;20443;-57
2022/11/04 00:04:08;;;;;;;2.37;1.90;;;12.00;99.90;;;;;;5095075;28;20479;-57
2022/11/04 00:06:37;;;;;;;2.10;1.90;;;11.90;99.90;;;;;;5094732;28;20955;-56
2022/11/04 00:09:05;;;;;;;2.10;1.90;;;11.90;99.90;;;;;;5095071;28;20462;-56
2022/11/04 00:14:18;;;;;;;2.40;2.20;;;11.80;99.90;;;;;;5094810;28;20407;-57
2022/11/04 00:28:41;;;;;;;2.70;1.97;;;11.90;99.90;;;;;;5094676;28;20481;-56
2022/11/04 00:30:48;;;;;;;3.27;2.20;;;11.80;99.90;;;;;;5094490;28;20968;-57
2022/11/04 00:33:26;;;;;;;2.57;2.10;;;11.70;99.90;;;;;;5094492;28;20542;-56
2022/11/04 00:35:57;;;;;;;1.70;1.60;;;11.70;99.90;;;;;;5094192;28;20459;-57
2022/11/04 00:38:25;;;;;;;1.97;1.80;;;11.70;99.90;;;;;;5094528;28;20455;-57
2022/11/04 00:40:52;;;;;;;2.57;2.07;;;11.70;99.90;;;;;;5094468;28;20443;-57
2022/11/04 00:43:19;;;;;;;3.60;1.80;;;11.70;99.90;;;;;;5094098;28;20814;-57
2022/11/04 00:45:46;;;;;;;2.03;1.87;;;11.60;99.90;;;;;;5093971;28;20484;-57
2022/11/04 00:48:13;;;;;;;2.23;1.90;;;11.70;99.90;;;;;;5094027;28;20454;-57
2022/11/04 00:50:41;;;;;;;1.80;1.70;;;11.70;99.90;;;;;;5094176;28;20479;-57
2022/11/04 00:53:10;;;;;;;3.17;1.93;;;11.70;99.90;;;;;;5093825;28;20534;-57
2022/11/04 00:55:37;;;;;;;1.97;1.70;;;10.10;99.90;;;;;;5093811;28;20468;-57
2022/11/04 00:58:04;;;;;;;2.73;1.80;;;11.60;99.90;;;;;;5093957;28;20471;-57
2022/11/04 01:00:31;;;;;;;2.10;1.90;;;11.50;99.90;;;;;;5094050;28;20448;-56
2022/11/04 01:02:59;;;;;;;1.83;1.73;;;11.50;99.90;;;;;;5093987;28;20538;-56
2022/11/04 01:05:27;;;;;;;1.60;1.50;;;11.50;99.90;;;;;;5093951;28;20494;-57
2022/11/04 01:07:54;;;;;;;1.90;1.60;;;11.50;99.90;;;;;;5093296;28;20455;-57
2022/11/04 01:10:23;;;;;;;2.13;1.70;;;11.60;99.90;;;;;;5094326;28;20467;-57
2022/11/04 01:12:53;;;;;;;1.70;1.60;;;11.50;99.90;;;;;;5093726;28;20479;-57
2022/11/04 01:15:20;;;;;;;2.07;1.87;;;11.50;99.90;;;;;;5093565;28;20475;-57
2022/11/04 01:17:47;;;;;;;2.03;1.83;;;11.60;99.90;;;;;;5093555;28;20523;-56
2022/11/04 01:20:14;;;;;;;1.57;1.47;;;11.60;99.90;;;;;;5093726;28;20947;-57
2022/11/04 01:22:41;;;;;;;1.93;1.73;;;11.60;99.90;;;;;;5093657;28;20506;-57
2022/11/04 01:25:10;;;;;;;1.83;1.73;;;11.70;99.90;;;;;;5093621;28;20468;-57
2022/11/04 01:27:38;;;;;;;1.60;1.47;;;11.60;99.90;;;;;;5093529;28;20807;-57
2022/11/04 01:30:07;;;;;;;1.93;1.67;;;11.50;99.90;;;;;;5093582;28;20492;-57
2022/11/04 01:32:34;;;;;;;2.83;1.80;;;11.50;99.90;;;;;;5093631;28;20449;-57
2022/11/04 01:35:01;;;;;;;1.90;1.70;;;11.50;99.90;;;;;;5093805;28;20459;-56
2022/11/04 01:37:28;;;;;;;2.70;1.80;;;11.60;99.90;;;;;;5093439;28;20446;-57
2022/11/04 01:39:55;;;;;;;1.70;1.60;;;11.50;99.90;;;;;;5093523;28;20522;-56
2022/11/04 01:42:23;;;;;;;2.20;1.70;;;11.50;99.90;;;;;;5093567;28;20446;-56
2022/11/04 01:44:55;;;;;;;1.70;1.60;;;11.50;99.90;;;;;;5093519;28;20486;-58
2022/11/04 01:47:28;;;;;;;1.80;1.60;;;11.50;99.90;;;;;;5093119;28;20473;-57
2022/11/04 01:49:59;;;;;;;1.80;1.70;;;11.40;99.90;;;;;;5093385;28;20423;-57
2022/11/04 01:52:31;;;;;;;2.17;1.97;;;11.50;99.90;;;;;;5093590;28;20558;-57
2022/11/04 01:55:06;;;;;;;1.80;1.70;;;11.50;99.90;;;;;;5093681;28;20459;-57
2022/11/04 01:57:36;;;;;;;2.00;1.90;;;11.40;99.90;;;;;;5093217;28;20522;-56
2022/11/04 02:00:08;;;;;;;2.80;1.97;;;11.40;99.90;;;;;;5093389;28;20430;-57
2022/11/04 02:02:37;;;;;;;1.63;1.53;;;11.40;99.90;;;;;;5093146;28;20988;-57
2022/11/04 02:05:05;;;;;;;2.00;1.90;;;11.40;99.90;;;;;;5093342;28;20965;-57
2022/11/04 02:07:32;;;;;;;1.90;1.70;;;11.40;99.90;;;;;;5093138;28;20447;-57
2022/11/04 02:09:59;;;;;;;1.77;1.67;;;11.40;99.90;;;;;;5093501;28;20428;-57
2022/11/04 02:15:13;;;;;;;1.50;1.40;;;11.40;99.90;;;;;;5093324;28;20442;-57
2022/11/04 02:18:00;;;;;;;1.50;1.40;;;11.30;99.90;;;;;;5092843;28;20542;-57
2022/11/04 02:20:45;;;;;;;1.60;1.50;;;11.30;99.90;;;;;;5096289;28;20523;-57
2022/11/04 02:23:52;;;;;;;1.93;1.73;;;11.30;99.90;;;;;;5096849;28;20814;-57
2022/11/04 02:26:54;;;;;;;2.03;1.63;;;11.20;99.90;;;;;;5097268;28;20491;-57
2022/11/04 02:29:42;;;;;;;2.53;1.60;;;11.20;99.90;;;;;;5087919;28;20450;-57
2022/11/04 02:32:16;;;;;;;2.50;1.60;;;11.30;99.90;;;;;;5096732;28;20907;-57
2022/11/04 02:34:55;;;;;;;2.57;2.00;;;11.30;99.90;;;;;;5096975;28;20471;-57
2022/11/04 02:37:33;;;;;;;1.93;1.83;;;11.20;99.90;;;;;;5096962;28;20439;-57
2022/11/04 02:40:09;;;;;;;1.47;1.37;;;11.20;99.90;;;;;;5097002;28;20428;-57
2022/11/04 02:42:42;;;;;;;2.23;1.67;;;11.10;99.90;;;;;;5096474;28;20427;-57
2022/11/04 02:45:16;;;;;;;1.63;1.43;;;11.10;99.90;;;;;;5096648;28;20548;-58
2022/11/04 02:47:46;;;;;;;2.40;1.40;;;11.10;99.90;;;;;;5096297;28;20897;-57
2022/11/04 02:50:20;;;;;;;1.77;1.67;;;11.10;99.90;;;;;;5096365;28;20449;-57
2022/11/04 02:52:54;;;;;;;1.57;1.47;;;11.10;99.90;;;;;;5096680;28;20496;-57
2022/11/04 02:55:25;;;;;;;2.70;1.60;;;11.10;99.90;;;;;;5096449;28;20525;-58
2022/11/04 02:57:55;;;;;;;3.17;1.57;;;11.20;99.90;;;;;;5096414;28;20428;-58
2022/11/04 03:00:24;;;;;;;1.40;1.30;;;11.20;99.90;;;;;;5096547;28;20871;-57
2022/11/04 03:02:56;;;;;;;2.60;1.50;;;11.30;99.90;;;;;;5096483;28;20535;-57
2022/11/04 03:05:33;;;;;;;2.90;1.40;;;11.20;99.90;;;;;;5096178;28;20558;-57
2022/11/04 03:08:06;;;;;;;1.43;1.30;;;11.10;99.90;;;;;;5096307;28;20450;-57
2022/11/04 03:10:36;;;;;;;2.10;1.73;;;11.20;99.90;;;;;;5095765;28;20438;-58
2022/11/04 03:13:09;;;;;;;2.20;1.50;;;11.10;99.90;;;;;;5096205;28;20444;-58
2022/11/04 03:15:39;;;;;;;1.90;1.80;;;11.10;99.90;;;;;;5095705;28;21031;-58
2022/11/04 03:18:17;;;;;;;1.57;1.47;;;11.00;99.90;;;;;;5095721;28;21001;-57
2022/11/04 03:20:48;;;;;;;2.77;1.70;;;11.00;99.90;;;;;;5096209;28;20428;-57
2022/11/04 03:23:15;;;;;;;1.70;1.53;;;10.90;99.90;;;;;;5096312;28;20451;-57
2022/11/04 03:25:45;;;;;;;1.60;1.50;;;10.80;99.90;;;;;;5095634;28;21027;-57
2022/11/04 03:28:27;;;;;;;1.57;1.47;;;10.80;99.90;;;;;;5096031;28;20478;-58
2022/11/04 03:30:59;;;;;;;2.50;1.30;;;10.80;99.90;;;;;;5095282;28;20464;-58
2022/11/04 03:33:30;;;;;;;1.90;1.80;;;10.90;99.90;;;;;;5095572;28;20427;-58
2022/11/04 03:35:57;;;;;;;1.77;1.60;;;10.90;99.90;;;;;;5096026;28;20467;-58
2022/11/04 03:38:24;;;;;;;4.43;1.83;;;10.90;99.90;;;;;;5095537;28;20455;-58
2022/11/04 03:40:52;;;;;;;1.80;1.67;;;10.80;99.90;;;;;;5095339;28;20455;-58
2022/11/04 03:43:24;;;;;;;1.50;1.33;;;10.90;99.90;;;;;;5095774;28;20450;-58
2022/11/04 03:45:51;;;;;;;5.13;2.00;;;10.90;99.90;;;;;;5095146;28;20494;-58
2022/11/04 03:48:20;;;;;;;1.90;1.70;;;10.80;99.90;;;;;;5095328;28;20470;-57
2022/11/04 03:50:49;;;;;;;1.80;1.70;;;10.70;99.90;;;;;;5095482;28;20476;-58
2022/11/04 03:53:20;;;;;;;2.60;1.73;;;10.70;99.90;;;;;;5095484;28;20504;-58
2022/11/04 03:56:02;;;;;;;2.00;1.60;;;10.60;99.90;;;;;;5095355;28;20470;-58
2022/11/04 03:58:41;;;;;;;1.97;1.87;;;10.50;99.90;;;;;;5095035;28;20936;-58
2022/11/04 04:01:23;;;;;;;2.93;1.50;;;10.50;99.90;;;;;;5095350;28;20541;-58
2022/11/04 04:03:59;;;;;;;2.33;1.57;;;10.60;99.90;;;;;;5094933;28;20427;-58
2022/11/04 04:06:31;;;;;;;2.30;1.60;;;10.60;99.90;;;;;;5095115;28;20811;-57
2022/11/04 04:09:05;;;;;;;4.20;1.60;;;10.60;99.90;;;;;;5095375;28;20456;-57
2022/11/04 04:11:42;;;;;;;2.10;1.77;;;10.60;99.90;;;;;;5095029;28;20467;-58
2022/11/04 04:14:37;;;;;;;1.77;1.67;;;10.60;99.90;;;;;;5094666;28;20465;-58
2022/11/04 04:17:08;;;;;;;5.67;1.67;;;10.50;99.90;;;;;;5094733;28;20431;-58
2022/11/04 04:19:37;;;;;;;2.83;1.57;;;10.50;99.90;;;;;;5094868;28;20452;-58
2022/11/04 04:22:12;;;;;;;2.00;1.80;;;10.50;99.90;;;;;;5094624;28;20445;-57
2022/11/04 04:27:33;;;;;;;1.60;1.50;;;10.50;99.90;;;;;;5094720;28;20411;-58
2022/11/04 04:30:02;;;;;;;1.93;1.60;;;10.50;99.90;;;;;;5094895;28;20854;-57
2022/11/04 04:32:32;;;;;;;1.93;1.70;;;10.50;99.90;;;;;;5094237;28;20521;-58
2022/11/04 04:37:47;;;;;;;2.13;1.90;;;10.40;99.90;;;;;;5094299;28;20443;-58
2022/11/04 04:45:51;;;;;;;3.10;2.53;;;10.30;99.90;;;;;;5094159;28;20474;-58
2022/11/04 04:48:19;;;;;;;2.20;2.00;;;10.30;99.90;;;;;;5094452;28;20515;-57
2022/11/04 04:50:50;;;;;;;1.93;1.73;;;10.40;99.90;;;;;;5094250;28;20535;-58
2022/11/04 04:53:19;;;;;;;2.90;2.10;;;10.40;99.90;;;;;;5094240;28;20466;-58
2022/11/04 04:55:46;;;;;;;3.37;2.23;;;10.40;99.90;;;;;;5094247;28;20498;-58
2022/11/04 04:58:14;;;;;;;5.10;2.50;;;10.40;99.90;;;;;;5094110;28;20453;-57
2022/11/04 05:00:41;;;;;;;4.20;3.20;;;10.40;99.90;;;;;;5094042;28;20443;-57
2022/11/04 05:03:08;;;;;;;2.53;2.33;;;10.50;99.90;;;;;;5094166;28;20462;-58
2022/11/04 05:05:35;;;;;;;2.73;2.20;;;10.50;99.90;;;;;;5093680;28;20474;-58
2022/11/04 05:08:08;;;;;;;1.87;1.67;;;10.40;99.90;;;;;;5093973;28;20471;-58
2022/11/04 05:10:35;;;;;;;3.50;1.47;;;10.40;99.90;;;;;;5094009;28;20424;-58
2022/11/04 05:15:46;;;;;;;3.23;1.80;;;10.30;99.90;;;;;;5093815;28;20438;-58
2022/11/04 05:18:14;;;;;;;2.63;1.80;;;10.30;99.90;;;;;;5093751;28;20447;-58
2022/11/04 05:20:41;;;;;;;1.60;1.50;;;10.30;99.90;;;;;;5093449;28;20454;-58
2022/11/04 05:23:11;;;;;;;1.80;1.70;;;10.30;99.90;;;;;;5093523;28;20535;-59
2022/11/04 05:25:39;;;;;;;1.93;1.60;;;10.30;99.90;;;;;;5093614;28;20471;-60
2022/11/04 05:28:07;;;;;;;2.63;1.80;;;10.30;99.90;;;;;;5093640;28;20443;-59
2022/11/04 05:30:35;;;;;;;4.10;1.80;;;10.20;99.90;;;;;;5093725;28;20540;-59
2022/11/04 05:33:03;;;;;;;1.93;1.70;;;10.20;99.90;;;;;;5093304;28;20471;-57
2022/11/04 05:35:30;;;;;;;2.13;1.67;;;10.10;99.90;;;;;;5093529;28;20550;-59
2022/11/04 05:37:57;;;;;;;8.20;2.40;;;10.00;99.90;;;;;;5093641;28;20474;-59
2022/11/04 05:40:26;;;;;;;2.30;1.77;;;10.10;99.90;;;;;;5093597;28;20504;-60
2022/11/04 05:42:53;;;;;;;3.53;1.77;;;10.10;99.90;;;;;;5093329;28;20462;-59
2022/11/04 05:45:20;;;;;;;2.23;2.03;;;10.10;99.90;;;;;;5093038;28;20831;-60
2022/11/04 05:47:47;;;;;;;2.40;1.77;;;10.10;99.90;;;;;;5093367;28;20428;-60
2022/11/04 05:50:19;;;;;;;1.93;1.70;;;10.20;99.90;;;;;;5092986;28;20538;-58
2022/11/04 05:52:47;;;;;;;3.93;2.07;;;10.10;99.90;;;;;;5093887;28;20487;-57
2022/11/04 05:55:14;;;;;;;2.40;2.20;;;10.00;99.90;;;;;;5097376;28;20499;-57
2022/11/04 05:57:42;;;;;;;2.30;2.10;;;9.90;99.90;;;;;;5097546;28;20447;-60
2022/11/04 06:00:11;;;;;;;2.57;2.10;;;9.90;99.90;;;;;;5097183;28;20451;-57
2022/11/04 06:02:38;;;;;;;2.20;2.00;;;9.90;99.90;;;;;;5097048;28;20440;-57
2022/11/04 06:05:07;;;;;;;3.30;2.00;;;10.00;99.90;;;;;;5097415;28;20463;-57
2022/11/04 06:07:34;;;;;;;2.07;1.87;;;10.00;99.90;;;;;;5096921;28;20443;-57
2022/11/04 06:10:01;;;;;;;2.10;1.90;;;10.00;99.90;;;;;;5097340;28;20434;-57
2022/11/04 06:12:28;;;;;;;3.43;1.60;;;9.90;99.90;;;;;;5096868;28;20493;-57
2022/11/04 06:14:57;;;;;;;2.00;1.80;;;9.90;99.90;;;;;;5097118;28;20474;-57
2022/11/04 06:17:24;;;;;;;5.23;3.60;;;10.00;99.90;;;;;;5096956;28;20878;-57
2022/11/04 06:19:51;;;;;;;2.93;1.83;;;10.00;99.90;;;;;;5096673;28;20940;-57
2022/11/04 06:22:19;;;;;;;3.63;2.00;;;10.00;99.90;;;;;;5096999;28;20449;-57
2022/11/04 06:24:47;;;;;;;1.73;1.63;;;10.00;99.90;;;;;;5096608;28;20471;-57
2022/11/04 06:27:14;;;;;;;3.00;2.13;;;9.90;99.90;;;;;;5097079;28;20447;-57
2022/11/04 06:29:41;;;;;;;2.90;2.20;;;10.00;99.90;;;;;;5097005;28;20448;-57
2022/11/04 06:32:11;;;;;;;3.27;2.33;;;9.90;99.90;;;;;;5096702;28;20475;-57
2022/11/04 06:34:39;;;;;;;4.80;2.53;;;9.90;99.90;;;;;;5097140;28;20463;-57
2022/11/04 06:37:06;;;;;;;8.53;1.80;;;9.90;99.90;;;;;;5096597;28;20460;-57
2022/11/04 06:39:33;;;;;;;4.33;2.20;;;9.90;99.90;;;;;;5096714;28;20501;-58
2022/11/04 06:42:00;;;;;;;2.40;2.20;;;9.90;99.90;;;;;;5096592;28;20439;-59
2022/11/04 06:44:28;;;;;;;3.77;2.30;;;9.90;99.90;;;;;;5096463;28;20463;-58
2022/11/04 06:46:55;;;;;;;8.00;2.07;;;9.90;99.90;;;;;;5095950;28;20987;-57
2022/11/04 06:49:23;;;;;;;3.00;2.43;;;9.90;99.90;;;;;;5096358;28;20959;-59
2022/11/04 06:51:51;;;;;;;3.57;2.03;;;10.00;99.90;;;;;;5096443;28;20475;-58
2022/11/04 06:54:18;;;;;;;3.13;2.30;;;10.10;99.90;;;;;;5095730;28;20537;-57
2022/11/04 06:56:46;;;;;;;3.53;2.77;;;10.10;99.90;;;;;;5096484;28;20475;-57
2022/11/04 06:59:17;;;;;;;4.33;2.93;;;10.20;99.90;;;;;;5096387;28;20455;-57
2022/11/04 07:01:44;;;;;;;4.60;2.40;;;10.20;99.90;;;;;;5096016;28;20439;-57
2022/11/04 07:04:12;;;;;;;2.97;2.63;;;10.10;99.90;;;;;;5095775;28;20571;-57
2022/11/04 07:06:42;;;;;;;8.13;2.57;;;10.00;99.90;;;;;;5096095;28;20459;-58
2022/11/04 07:09:12;;;;;;;4.77;2.93;;;10.10;99.90;;;;;;5096214;28;20490;-57
2022/11/04 07:11:39;;;;;;;3.47;2.30;;;10.00;99.90;;;;;;5095570;28;20530;-57
2022/11/04 07:14:07;;;;;;;4.23;2.43;;;10.10;99.90;;;;;;5095447;28;20451;-57
2022/11/04 07:16:34;;;;;;;4.50;2.60;;;10.10;99.90;;;;;;5095978;28;21049;-57
2022/11/04 07:19:01;;;;;;;2.00;1.80;;;10.10;99.90;;;;;;5095656;28;20444;-57
2022/11/04 07:21:29;;;;;;;4.33;2.50;;;10.20;99.90;;;;;;5095869;28;20448;-57
2022/11/04 07:23:57;;;;;;;3.70;2.27;;;10.20;99.90;;;;;;5095637;28;20455;-57
2022/11/04 07:26:25;;;;;;;6.70;2.67;;;10.10;99.90;;;;;;5095712;28;20459;-57
2022/11/04 07:28:52;;;;;;;4.47;2.43;;;10.20;99.90;;;;;;5095393;28;21016;-57
2022/11/04 07:31:21;;;;;;;5.33;2.20;;;10.20;99.90;;;;;;5095231;28;20937;-57
2022/11/04 07:33:50;;;;;;;2.30;2.10;;;10.10;99.90;;;;;;5095470;28;20517;-57
2022/11/04 07:36:17;;;;;;;5.07;2.60;;;10.00;99.90;;;;;;5095526;28;20468;-58
2022/11/04 07:38:45;;;;;;;3.43;2.43;;;10.10;99.90;;;;;;5095687;28;20458;-58
2022/11/04 07:41:14;;;;;;;3.80;2.43;;;10.20;99.90;;;;;;5095482;28;20447;-57
2022/11/04 07:43:41;;;;;;;2.83;2.10;;;10.20;99.90;;;;;;5095140;28;20445;-57
2022/11/04 07:46:11;;;;;;;2.60;2.00;;;10.30;99.90;;;;;;5095241;28;20475;-57
2022/11/04 07:48:39;;;;;;;3.27;2.30;;;10.30;99.90;;;;;;5095287;28;20527;-57
2022/11/04 07:51:07;;;;;;;2.60;2.20;;;10.30;99.90;;;;;;5094835;28;20481;-57
2022/11/04 07:53:35;;;;;;;2.73;2.33;;;10.30;99.90;;;;;;5095070;28;20499;-57
2022/11/04 07:56:04;;;;;;;5.90;2.20;;;10.30;99.90;;;;;;5094624;28;20517;-57
2022/11/04 07:58:32;;;;;;;2.97;2.70;;;10.40;99.90;;;;;;5094623;28;20453;-58
2022/11/04 08:00:59;;;;;;;2.50;2.03;;;10.30;99.90;;;;;;5095160;28;20508;-58
2022/11/04 08:03:27;;;;;;;4.60;2.73;;;10.40;99.90;;;;;;5094733;28;20493;-58
2022/11/04 08:05:57;;;;;;;3.00;2.80;;;10.40;99.90;;;;;;5094687;28;20467;-58
2022/11/04 08:08:25;;;;;;;3.27;2.50;;;10.50;99.90;;;;;;5094870;28;20451;-57
2022/11/04 08:10:53;;;;;;;3.73;2.87;;;10.50;99.90;;;;;;5094655;28;20450;-57
2022/11/04 08:13:21;;;;;;;4.93;2.70;;;10.60;99.90;;;;;;5094446;28;20487;-58
2022/11/04 08:15:49;;;;;;;3.93;2.30;;;10.70;99.90;;;;;;5094342;28;20467;-58
2022/11/04 08:18:16;;;;;;;4.17;2.30;;;10.80;99.90;;;;;;5094050;28;20448;-58
2022/11/04 08:20:48;;;;;;;5.73;2.03;;;10.80;99.90;;;;;;5094576;28;20453;-58
2022/11/04 08:23:16;;;;;;;3.77;2.73;;;10.90;99.90;;;;;;5094721;28;20776;-58
2022/11/04 08:25:44;;;;;;;4.27;2.40;;;11.00;99.90;;;;;;5094457;28;20463;-58
2022/11/04 08:28:16;;;;;;;5.50;2.37;;;11.20;99.90;;;;;;5094258;28;20443;-58
2022/11/04 08:30:53;;;;;;;2.87;2.20;;;11.00;99.90;;;;;;5094617;28;20432;-58
2022/11/04 08:33:20;;;;;;;5.60;1.87;;;10.90;99.90;;;;;;5094234;28;20467;-58
2022/11/04 08:35:47;;;;;;;3.23;2.93;;;11.10;99.90;;;;;;5094546;28;20475;-58
2022/11/04 08:38:15;;;;;;;2.43;1.90;;;11.20;99.90;;;;;;5094151;28;20554;-58
2022/11/04 08:40:42;;;;;;;2.47;2.13;;;11.20;99.90;;;;;;5094409;28;20443;-58
2022/11/04 08:43:09;;;;;;;2.50;1.70;;;11.30;99.90;;;;;;5094340;28;20449;-58
2022/11/04 08:45:40;;;;;;;3.23;2.10;;;11.40;99.90;;;;;;5091791;28;20519;-60
2022/11/04 08:48:13;;;;;;;3.30;2.07;;;11.40;99.90;;;;;;5073909;28;20520;-57
2022/11/04 08:50:40;;;;;;;4.53;2.10;;;11.40;99.90;;;;;;5073444;28;20448;-57
2022/11/04 08:53:07;;;;;;;7.43;2.20;;;11.60;99.90;;;;;;5073356;28;21004;-57
2022/11/04 08:55:35;;;;;;;2.27;2.07;;;11.40;99.90;;;;;;5073591;28;20479;-57
2022/11/04 08:58:03;;;;;;;1.97;1.87;;;11.40;99.90;;;;;;5073507;28;20451;-57
2022/11/04 09:00:31;;;;;;;5.57;2.13;;;11.50;99.90;;;;;;5073273;28;20544;-58
2022/11/04 09:02:59;;;;;;;3.50;2.10;;;11.60;99.90;;;;;;5073317;28;20445;-57
2022/11/04 09:05:27;;;;;;;3.60;2.23;;;11.60;99.90;;;;;;5073411;28;20821;-57
2022/11/04 09:07:55;;;;;;;2.67;1.83;;;11.70;99.90;;;;;;5073627;28;20479;-57
2022/11/04 09:10:22;;;;;;;5.40;1.70;;;11.80;99.90;;;;;;5073478;28;20455;-60
2022/11/04 09:12:49;;;;;;;5.20;2.27;;;11.60;99.90;;;;;;5073224;28;20486;-60
2022/11/04 09:15:17;;;;;;;3.40;2.40;;;11.60;99.90;;;;;;5073183;28;20468;-59
2022/11/04 09:17:44;;;;;;;3.60;1.90;;;11.70;99.90;;;;;;5072965;28;20532;-59
2022/11/04 09:20:11;;;;;;;2.50;2.30;;;11.70;99.90;;;;;;5073202;28;20471;-59
2022/11/04 09:22:40;;;;;;;2.83;1.90;;;11.70;99.90;;;;;;5073417;28;20528;-57
2022/11/04 09:25:08;;;;;;;3.33;1.93;;;11.70;99.90;;;;;;5073223;28;20555;-57
2022/11/04 09:27:36;;;;;;;4.40;2.00;;;11.80;99.90;;;;;;5072607;28;20444;-57
2022/11/04 09:30:03;;;;;;;4.97;2.30;;;11.80;99.90;;;;;;5073022;28;20444;-57
2022/11/04 09:32:30;;;;;;;2.20;2.00;;;11.90;99.90;;;;;;5073082;28;20861;-57
2022/11/04 09:34:57;;;;;;;5.07;2.20;;;11.90;99.90;;;;;;5073379;28;20492;-58
2022/11/04 09:37:25;;;;;;;2.40;1.80;;;11.80;99.90;;;;;;5073342;28;20444;-57
2022/11/04 09:39:53;;;;;;;4.40;2.20;;;11.90;99.90;;;;;;5073119;28;20527;-58
2022/11/04 09:42:41;;;;;;;2.67;1.70;;;11.90;99.90;;;;;;5072841;28;20456;-58
2022/11/04 09:45:13;;;;;;;3.93;1.90;;;12.10;99.90;;;;;;5073191;28;20555;-58
2022/11/04 09:47:42;;;;;;;2.23;1.87;;;12.10;99.90;;;;;;5072821;28;20575;-58
2022/11/04 09:50:20;;;;;;;1.70;1.57;;;12.10;99.90;;;;;;5072798;28;20537;-58
2022/11/04 09:52:55;;;;;;;2.43;1.70;;;12.00;99.90;;;;;;5073188;28;20567;-57
2022/11/04 09:55:31;;;;;;;1.90;1.70;;;12.00;99.90;;;;;;5072962;28;20576;-58
2022/11/04 09:57:58;;;;;;;1.90;1.80;;;12.10;99.90;;;;;;5073081;28;20867;-57
2022/11/04 10:00:30;;;;;;;2.30;1.50;;;12.20;99.90;;;;;;5072928;28;20543;-57
2022/11/04 10:03:11;;;;;;;1.70;1.60;;;12.30;99.90;;;;;;5072924;28;20425;-57
2022/11/04 10:05:52;;;;;;;2.30;2.10;;;12.40;99.90;;;;;;5072610;28;20472;-58
2022/11/04 10:08:44;;;;;;;1.67;1.57;;;12.60;99.90;;;;;;5073100;28;20478;-58
2022/11/04 10:11:19;;;;;;;2.00;1.80;;;12.50;99.90;;;;;;5073070;28;20433;-58
2022/11/04 10:13:59;;;;;;;5.07;1.80;;;12.60;99.90;;;;;;5072798;28;20494;-57
2022/11/04 10:16:37;;;;;;;2.53;1.70;;;12.70;99.90;;;;;;5072463;28;20986;-57
2022/11/04 10:19:17;;;;;;;2.17;1.60;;;12.90;99.90;;;;;;5072430;28;20435;-57
2022/11/04 10:21:52;;;;;;;2.20;2.00;;;13.00;99.90;;;;;;5072672;28;20794;-57
2022/11/04 10:24:35;;;;;;;1.87;1.70;;;13.20;99.90;;;;;;5072226;28;20479;-57
2022/11/04 10:27:10;;;;;;;2.13;1.77;;;13.10;99.90;;;;;;5072289;28;20433;-57
2022/11/04 10:29:41;;;;;;;4.97;1.63;;;13.10;99.90;;;;;;5072564;28;20455;-57
2022/11/04 10:32:15;;;;;;;3.10;2.17;;;13.00;99.90;;;;;;5072548;28;20451;-57
2022/11/04 10:34:48;;;;;;;2.90;2.20;;;13.00;99.90;;;;;;5072081;28;21012;-57
2022/11/04 10:37:15;;;;;;;4.43;1.70;;;13.10;99.90;;;;;;5072046;28;20433;-58
2022/11/04 10:39:44;;;;;;;4.40;2.97;;;13.00;99.90;;;;;;5073051;28;20525;-57
2022/11/04 10:42:17;;;;;;;4.27;1.80;;;13.00;99.90;;;;;;5075854;28;20855;-58
2022/11/04 10:44:45;;;;;;;5.10;2.30;;;13.20;99.90;;;;;;5075937;28;20456;-58
2022/11/04 10:47:27;;;;;;;5.60;2.20;;;13.20;99.90;;;;;;5075756;28;20831;-58
2022/11/04 10:50:02;;;;;;;4.63;1.80;;;13.30;99.90;;;;;;5075663;28;20439;-58
2022/11/04 10:52:32;;;;;;;4.93;1.70;;;13.30;99.90;;;;;;5076237;28;20428;-58
2022/11/04 10:54:59;;;;;;;1.90;1.80;;;13.10;99.90;;;;;;5075967;28;20549;-60
2022/11/04 10:57:29;;;;;;;2.10;1.90;;;13.10;99.90;;;;;;5075405;28;20556;-58
2022/11/04 10:59:58;;;;;;;5.67;1.50;;;13.20;99.90;;;;;;5075945;28;20844;-60
2022/11/04 11:02:46;;;;;;;8.67;2.07;;;13.20;99.90;;;;;;5075496;28;20538;-57
2022/11/04 11:05:22;;;;;;;4.17;2.40;;;13.10;99.90;;;;;;5075461;28;20559;-58
2022/11/04 11:07:51;;;;;;;3.83;1.70;;;13.10;99.90;;;;;;5075491;28;20454;-58
2022/11/04 11:10:21;;;;;;;6.00;1.73;;;13.00;99.90;;;;;;5075627;28;20459;-57
2022/11/04 11:12:56;;;;;;;4.57;2.10;;;12.90;99.90;;;;;;5075584;28;20870;-58
2022/11/04 11:15:31;;;;;;;2.10;1.87;;;13.00;99.90;;;;;;5075333;28;20986;-57
2022/11/04 11:18:13;;;;;;;2.50;1.83;;;13.00;99.90;;;;;;5075404;28;20515;-57
2022/11/04 11:20:42;;;;;;;3.67;2.40;;;13.10;99.90;;;;;;5075660;28;20475;-57
2022/11/04 11:23:42;;;;;;;5.47;1.90;;;12.90;99.90;;;;;;5074994;28;20484;-57
2022/11/04 11:26:12;;;;;;;3.83;1.83;;;12.80;99.90;;;;;;5075399;28;20466;-57
2022/11/04 11:28:41;;;;;;;3.40;2.20;;;13.10;99.90;;;;;;5075435;28;20441;-57
2022/11/04 11:31:15;;;;;;;6.67;2.30;;;13.00;99.90;;;;;;5074998;28;20440;-57
2022/11/04 11:33:49;;;;;;;4.13;2.57;;;12.90;99.90;;;;;;5075405;28;20468;-57
2022/11/04 11:36:20;;;;;;;5.43;2.30;;;12.90;99.90;;;;;;5075340;28;20467;-57
2022/11/04 11:38:59;;;;;;;5.67;2.70;;;12.90;99.90;;;;;;5074992;28;20797;-57
2022/11/04 11:41:33;;;;;;;3.60;2.33;;;13.00;99.90;;;;;;5074866;28;20524;-58
2022/11/04 11:44:18;;;;;;;10.33;2.90;;;13.10;99.90;;;;;;5074702;28;20429;-58
2022/11/04 11:46:53;;;;;;;5.53;2.50;;;13.10;99.90;;;;;;5086218;28;20479;-58
2022/11/04 11:49:27;;;;;;;3.67;1.80;;;13.10;99.90;;;;;;5095235;28;20438;-57
2022/11/04 11:51:55;;;;;;;2.43;1.90;;;13.20;99.90;;;;;;5094845;28;20553;-57
2022/11/04 11:54:32;;;;;;;4.33;2.10;;;13.20;99.90;;;;;;5094786;28;20485;-57
2022/11/04 11:57:02;;;;;;;9.40;2.40;;;13.30;99.90;;;;;;5094974;28;20912;-57
2022/11/04 11:59:37;;;;;;;3.40;1.60;;;13.40;99.90;;;;;;5094856;28;20447;-58
2022/11/04 12:02:20;;;;;;;3.73;2.00;;;13.50;99.90;;;;;;5095074;28;20437;-58
2022/11/04 12:04:47;;;;;;;5.40;1.97;;;13.30;99.90;;;;;;5094561;28;20487;-57
2022/11/04 12:07:26;;;;;;;2.60;2.20;;;13.50;99.90;;;;;;5094832;28;20546;-57
2022/11/04 12:09:59;;;;;;;7.03;1.80;;;13.50;99.90;;;;;;5094765;28;20424;-57
2022/11/04 12:12:39;;;;;;;3.73;1.70;;;13.50;99.90;;;;;;5094428;28;20442;-57
2022/11/04 12:15:33;;;;;;;3.70;2.10;;;13.50;99.90;;;;;;5094486;28;21026;-57
2022/11/04 12:18:16;;;;;;;2.80;2.20;;;13.60;99.90;;;;;;5093533;28;20460;-58
2022/11/04 12:20:55;;;;;;;4.43;2.33;;;13.70;99.90;;;;;;5094474;28;20434;-58
2022/11/04 12:23:29;;;;;;;2.63;1.70;;;13.60;99.90;;;;;;5094108;28;20432;-58
2022/11/04 12:26:11;;;;;;;3.80;2.20;;;13.50;99.90;;;;;;5094584;28;20520;-58
2022/11/04 12:28:50;;;;;;;8.17;2.33;;;13.50;99.90;;;;;;5094500;28;20477;-58
2022/11/04 12:31:29;;;;;;;2.80;2.00;;;13.30;99.90;;;;;;5094410;28;20428;-58
2022/11/04 12:34:05;;;;;;;9.30;2.50;;;13.40;99.90;;;;;;5094268;28;20478;-58
2022/11/04 12:36:45;;;;;;;2.90;2.20;;;13.40;99.90;;;;;;5094053;28;20462;-58
2022/11/04 12:39:27;;;;;;;3.13;1.90;;;13.40;99.90;;;;;;5094274;28;20543;-58
2022/11/04 12:42:10;;;;;;;9.20;2.50;;;13.40;99.90;;;;;;5094215;28;20454;-58
2022/11/04 12:44:42;;;;;;;3.57;2.20;;;13.60;99.90;;;;;;5093870;28;20515;-59
2022/11/04 12:47:22;;;;;;;4.30;2.53;;;13.60;99.90;;;;;;5080881;28;21036;-58
2022/11/04 12:50:22;;;;;;;3.63;2.07;;;13.70;99.90;;;;;;5074077;28;20428;-58
2022/11/04 12:53:03;;;;;;;4.30;1.97;;;13.70;99.90;;;;;;5071871;28;20445;-58
2022/11/04 12:55:39;;;;;;;2.37;1.73;;;13.80;99.90;;;;;;5073602;28;20492;-58
2022/11/04 12:58:28;;;;;;;2.50;2.10;;;13.90;99.90;;;;;;5073847;28;20515;-58
2022/11/04 13:01:01;;;;;;;9.43;2.10;;;13.90;99.90;;;;;;5073292;28;20448;-58
2022/11/04 13:03:34;;;;;;;2.33;1.90;;;13.80;99.90;;;;;;5072626;28;20432;-58
2022/11/04 13:06:05;;;;;;;3.10;1.87;;;13.60;99.90;;;;;;5073730;28;20884;-57
2022/11/04 13:08:38;;;;;;;5.23;2.00;;;13.80;99.90;;;;;;5073454;28;20543;-58
2022/11/04 13:11:21;;;;;;;3.47;1.80;;;13.90;99.90;;;;;;5073563;28;20512;-58
2022/11/04 13:13:57;;;;;;;4.30;2.00;;;14.10;99.90;;;;;;5073377;28;20522;-58
2022/11/04 13:16:24;;;;;;;4.47;1.90;;;14.40;99.90;;;;;;5073249;28;20483;-58
2022/11/04 13:18:53;;;;;;;5.43;2.40;;;14.30;99.90;;;;;;5073493;28;20448;-58
2022/11/04 13:21:26;;;;;;;3.83;1.70;;;14.00;99.90;;;;;;5072639;28;21088;-57
2022/11/04 13:24:03;;;;;;;2.10;1.77;;;14.10;99.90;;;;;;5073019;28;20456;-58
2022/11/04 13:26:31;;;;;;;1.80;1.70;;;14.00;99.90;;;;;;5073185;28;20859;-58
2022/11/04 13:29:04;;;;;;;4.10;1.97;;;13.90;99.90;;;;;;5073154;28;20451;-58
2022/11/04 13:31:41;;;;;;;4.70;1.97;;;14.00;99.90;;;;;;5073231;28;20429;-58
2022/11/04 13:34:21;;;;;;;5.47;1.87;;;13.80;99.90;;;;;;5072793;28;20845;-58
2022/11/04 13:36:54;;;;;;;2.07;1.70;;;13.80;99.90;;;;;;5073123;28;20834;-58
2022/11/04 13:39:25;;;;;;;4.37;1.93;;;13.50;99.90;;;;;;5073601;28;20460;-58
2022/11/04 13:42:32;;;;;;;3.73;1.97;;;13.40;99.90;;;;;;5073394;28;20433;-58